Time;durP1;ratioP1;P1;durP2;ratioP2;P2;SDS_P1;SDS_P2;PMS_P1;PMS_P2;Temp;Humidity;BMP_temperature;BMP_pressure;BME280_temperature;BME280_humidity;BME280_pressure;Samples;Min_cycle;Max_cycle;Signal;HPM_P1;HPM_P2
2022/01/24 00:01:28;;;;;;;21.08;10.50;;;;;;;2.06;86.97;102656.78;5052633;28;20107;-56
2022/01/24 00:03:57;;;;;;;24.83;11.05;;;;;;;2.06;87.33;102655.91;5052302;28;20040;-57
2022/01/24 00:06:25;;;;;;;21.27;10.07;;;;;;;2.09;87.18;102653.56;5058907;28;20048;-57
2022/01/24 00:08:52;;;;;;;18.08;8.27;;;;;;;2.09;87.31;102653.56;5063146;28;20484;-57
2022/01/24 00:11:24;;;;;;;21.23;9.30;;;;;;;2.09;87.18;102645.88;5058329;28;20063;-58
2022/01/24 00:14:35;;;;;;;18.73;9.43;;;;;;;2.09;87.22;102645.88;5058800;28;20056;-58
2022/01/24 00:17:04;;;;;;;17.13;8.00;;;;;;;2.10;87.25;102634.84;5055131;28;20045;-57
2022/01/24 00:27:45;;;;;;;17.42;9.25;;;;;;;1.98;87.46;102641.81;5048968;28;20072;-57
2022/01/24 00:30:14;;;;;;;16.17;7.82;;;;;;;2.02;87.38;102646.31;5056228;28;20044;-56
2022/01/24 00:32:43;;;;;;;50.47;29.00;;;;;;;2.03;87.25;102646.38;5050889;28;20056;-56
2022/01/24 00:35:11;;;;;;;15.73;7.95;;;;;;;2.01;87.79;102642.88;5053046;28;20511;-57
2022/01/24 00:37:39;;;;;;;12.98;6.63;;;;;;;2.05;87.55;102644.81;5050195;28;20489;-57
2022/01/24 00:40:08;;;;;;;34.17;20.63;;;;;;;2.09;87.52;102649.31;5048153;28;20057;-57
2022/01/24 00:42:46;;;;;;;17.35;9.93;;;;;;;2.11;87.58;102649.41;5049442;28;20111;-56
2022/01/24 00:45:18;;;;;;;12.57;6.38;;;;;;;2.09;87.18;102656.13;5046050;28;20041;-57
2022/01/24 00:48:05;;;;;;;12.65;6.30;;;;;;;2.08;87.03;102651.75;5056345;28;20513;-57
2022/01/24 00:53:31;;;;;;;11.98;5.90;;;;;;;2.10;87.09;102647.66;5055908;28;20114;-57
2022/01/24 00:55:59;;;;;;;16.33;8.40;;;;;;;2.12;87.30;102643.50;5048570;28;20045;-57
2022/01/24 00:58:27;;;;;;;15.25;8.27;;;;;;;2.13;87.29;102648.69;5052959;28;20045;-57
2022/01/24 01:00:54;;;;;;;14.63;6.85;;;;;;;2.12;87.42;102640.94;5051600;28;20482;-57
2022/01/24 01:03:24;;;;;;;18.60;9.20;;;;;;;2.11;87.23;102641.75;5054230;28;20057;-57
2022/01/24 01:06:05;;;;;;;11.27;6.13;;;;;;;2.10;87.27;102647.66;5058652;28;20056;-57
2022/01/24 01:19:33;;;;;;;10.90;5.80;;;;;;;2.17;87.38;102660.88;5051313;28;20524;-54
2022/01/24 01:22:01;;;;;;;14.18;5.57;;;;;;;2.18;86.74;102664.31;5053537;28;20059;-56
2022/01/24 01:24:30;;;;;;;11.90;5.75;;;;;;;2.19;86.82;102668.63;5052300;28;20397;-56
2022/01/24 01:27:03;;;;;;;10.48;5.57;;;;;;;2.20;86.79;102675.50;5054772;28;20399;-57
2022/01/24 01:29:34;;;;;;;12.52;5.78;;;;;;;2.22;87.00;102676.47;5058797;28;20148;-57
2022/01/24 01:32:11;;;;;;;13.05;5.22;;;;;;;2.24;86.67;102679.13;5054269;28;20091;-57
2022/01/24 01:35:02;;;;;;;10.27;5.55;;;;;;;2.26;86.90;102680.09;5055826;28;20217;-57
2022/01/24 01:38:00;;;;;;;11.82;4.75;;;;;;;2.28;86.95;102678.50;5052717;28;20143;-56
2022/01/24 01:54:28;;;;;;;13.65;5.80;;;;;;;2.15;86.61;102652.22;5056501;28;20082;-55
2022/01/24 01:56:55;;;;;;;9.93;4.95;;;;;;;2.16;86.89;102642.88;5053064;28;20139;-57
2022/01/24 01:59:22;;;;;;;10.68;5.85;;;;;;;2.14;87.02;102637.66;5052676;28;20072;-57
2022/01/24 02:01:50;;;;;;;14.02;7.43;;;;;;;2.13;86.65;102638.47;5059065;28;20053;-56
2022/01/24 02:04:17;;;;;;;38.17;21.08;;;;;;;2.11;86.24;102640.06;5053765;28;20044;-56
2022/01/24 02:06:45;;;;;;;38.05;19.75;;;;;;;2.10;86.58;102633.19;5058155;28;20044;-57
2022/01/24 02:09:14;;;;;;;12.13;6.13;;;;;;;2.08;86.44;102632.22;5059434;28;20428;-56
2022/01/24 02:11:41;;;;;;;11.68;5.85;;;;;;;2.05;86.77;102631.13;5058997;28;20063;-57
2022/01/24 02:14:12;;;;;;;21.23;12.32;;;;;;;2.04;87.09;102632.81;5056133;28;20052;-57
2022/01/24 02:16:46;;;;;;;17.35;9.68;;;;;;;2.02;86.81;102633.50;5051471;28;20052;-56
2022/01/24 02:19:24;;;;;;;12.75;6.82;;;;;;;2.00;87.13;102630.00;5057107;28;20102;-57
2022/01/24 02:22:17;;;;;;;18.50;10.05;;;;;;;2.00;87.05;102632.53;5055700;28;20094;-55
2022/01/24 02:24:54;;;;;;;20.35;10.90;;;;;;;1.96;87.50;102634.06;5050619;28;20045;-56
2022/01/24 02:27:24;;;;;;;17.63;8.55;;;;;;;1.96;87.29;102628.06;5068797;28;20047;-57
2022/01/24 02:30:05;;;;;;;19.08;10.50;;;;;;;1.95;87.45;102626.28;5082413;28;20051;-55
2022/01/24 02:32:32;;;;;;;23.73;12.88;;;;;;;1.90;87.73;102616.69;5072264;28;20063;-56
2022/01/24 02:35:00;;;;;;;16.55;7.32;;;;;;;1.90;87.44;102611.56;5077914;28;20048;-56
2022/01/24 02:37:28;;;;;;;12.25;6.88;;;;;;;1.89;87.94;102607.25;5084466;28;20036;-55
2022/01/24 02:39:59;;;;;;;19.65;8.77;;;;;;;1.87;87.72;102601.16;5085450;28;20059;-56
2022/01/24 02:51:10;;;;;;;21.60;10.55;;;;;;;1.80;88.97;102601.63;5071031;28;20047;-56
2022/01/24 02:53:39;;;;;;;22.90;9.98;;;;;;;1.78;88.99;102582.75;5083779;28;20052;-56
2022/01/24 02:56:07;;;;;;;14.80;7.45;;;;;;;1.78;89.14;102587.00;5083930;28;20416;-57
2022/01/24 02:58:35;;;;;;;15.77;8.48;;;;;;;1.77;89.40;102598.88;5076191;28;20473;-56
2022/01/24 03:01:06;;;;;;;20.63;9.25;;;;;;;1.74;89.67;102585.94;5069670;28;20052;-56
2022/01/24 03:03:34;;;;;;;15.90;7.00;;;;;;;1.72;89.58;102586.63;5072438;28;20063;-56
2022/01/24 03:06:01;;;;;;;17.25;7.57;;;;;;;1.72;89.87;102591.75;5069586;28;20717;-57
2022/01/24 03:08:28;;;;;;;16.67;8.48;;;;;;;1.70;89.87;102578.88;5074639;28;20453;-55
2022/01/24 03:10:59;;;;;;;10.57;5.00;;;;;;;1.68;89.88;102590.69;5080614;28;20238;-57
2022/01/24 03:13:33;;;;;;;14.00;7.53;;;;;;;1.68;89.69;102595.81;5075316;28;20143;-57
2022/01/24 03:16:04;;;;;;;8.95;4.82;;;;;;;1.68;90.04;102595.81;5069380;28;20179;-58
2022/01/24 03:18:31;;;;;;;11.30;5.30;;;;;;;1.66;90.18;102584.63;5074105;28;20497;-57
2022/01/24 03:20:58;;;;;;;12.27;5.85;;;;;;;1.65;89.96;102575.19;5071045;28;20950;-56
2022/01/24 03:23:26;;;;;;;10.43;5.90;;;;;;;1.65;89.50;102580.31;5070943;28;20064;-57
2022/01/24 03:25:54;;;;;;;8.32;4.60;;;;;;;1.64;90.22;102578.53;5078945;28;20143;-56
2022/01/24 03:28:23;;;;;;;9.15;4.80;;;;;;;1.64;89.96;102575.97;5059157;28;20044;-56
2022/01/24 03:30:50;;;;;;;9.20;4.65;;;;;;;1.64;89.83;102568.31;5054546;28;20056;-57
2022/01/24 03:33:18;;;;;;;9.07;4.60;;;;;;;1.65;90.04;102575.19;5056291;28;20080;-57
2022/01/24 03:35:45;;;;;;;10.88;5.65;;;;;;;1.65;89.64;102577.75;5053842;28;20044;-54
2022/01/24 03:38:13;;;;;;;10.13;4.50;;;;;;;1.65;90.12;102590.53;5054294;28;20057;-57
2022/01/24 03:40:41;;;;;;;11.95;5.82;;;;;;;1.65;89.75;102585.41;5052527;28;20052;-57
2022/01/24 03:43:08;;;;;;;12.23;5.10;;;;;;;1.65;89.50;102580.31;5056522;28;20521;-57
2022/01/24 03:45:43;;;;;;;9.88;4.65;;;;;;;1.67;90.17;102577.84;5055426;28;20394;-56
2022/01/24 03:48:24;;;;;;;9.40;4.63;;;;;;;1.67;89.78;102573.59;5059266;28;20056;-56
2022/01/24 03:50:51;;;;;;;8.40;4.03;;;;;;;1.69;90.20;102572.00;5058036;28;20045;-57
2022/01/24 03:53:18;;;;;;;10.32;5.43;;;;;;;1.70;90.21;102578.88;5055714;28;20060;-56
2022/01/24 03:55:45;;;;;;;6.47;3.90;;;;;;;1.71;89.89;102580.66;5052927;28;20045;-56
2022/01/24 03:58:13;;;;;;;7.50;4.00;;;;;;;1.74;89.87;102585.94;5054268;28;20417;-57
2022/01/24 04:00:41;;;;;;;12.10;5.55;;;;;;;1.75;89.28;102580.03;5052545;28;20052;-57
2022/01/24 04:03:09;;;;;;;6.97;3.63;;;;;;;1.78;89.37;102582.75;5053669;28;20428;-57
2022/01/24 04:05:36;;;;;;;6.25;3.35;;;;;;;1.81;89.46;102593.16;5052748;28;20044;-57
2022/01/24 04:08:03;;;;;;;7.47;4.00;;;;;;;1.83;88.98;102588.13;5052092;28;20078;-57
2022/01/24 04:10:39;;;;;;;6.82;3.70;;;;;;;1.85;89.10;102587.41;5052689;28;20465;-57
2022/01/24 04:13:20;;;;;;;6.03;3.38;;;;;;;1.86;89.45;102585.75;5053541;28;20048;-56
2022/01/24 04:16:00;;;;;;;8.45;4.43;;;;;;;1.85;89.34;102582.31;5052243;28;20076;-57
2022/01/24 04:18:37;;;;;;;7.90;4.47;;;;;;;1.86;88.83;102578.94;5053288;28;20048;-57
2022/01/24 04:21:22;;;;;;;6.30;3.22;;;;;;;1.89;89.18;102579.13;5057814;28;20052;-56
2022/01/24 04:23:56;;;;;;;6.73;3.93;;;;;;;1.89;89.10;102576.56;5054858;28;21983;-54
2022/01/24 04:26:23;;;;;;;7.07;3.60;;;;;;;1.90;88.75;102565.53;5065543;28;20044;-57
2022/01/24 04:28:50;;;;;;;11.23;5.53;;;;;;;1.94;89.03;102568.25;5074426;28;20047;-55
2022/01/24 04:31:19;;;;;;;11.55;6.68;;;;;;;1.95;88.68;102573.47;5076261;28;20052;-56
2022/01/24 04:33:47;;;;;;;10.85;5.60;;;;;;;1.96;88.80;102566.66;5076874;28;20040;-57
2022/01/24 04:36:15;;;;;;;7.40;3.47;;;;;;;1.98;88.50;102559.97;5070452;28;20455;-57
2022/01/24 04:38:42;;;;;;;7.13;3.75;;;;;;;1.98;88.53;102565.97;5069284;28;20094;-57
2022/01/24 04:41:16;;;;;;;8.90;3.70;;;;;;;2.00;88.71;102553.25;5071713;28;20923;-58
2022/01/24 04:52:09;;;;;;;8.45;4.35;;;;;;;2.04;89.03;102555.19;5081092;28;20105;-58
2022/01/24 04:54:42;;;;;;;8.75;4.57;;;;;;;2.04;89.11;102555.19;5074274;28;20126;-58
2022/01/24 04:57:10;;;;;;;9.18;4.80;;;;;;;1.99;89.37;102556.59;5071699;28;20052;-58
2022/01/24 04:59:39;;;;;;;6.80;3.55;;;;;;;1.98;89.25;102555.72;5072297;28;20048;-58
2022/01/24 05:02:08;;;;;;;7.03;3.88;;;;;;;1.94;89.77;102558.03;5071684;28;20059;-59
2022/01/24 05:04:36;;;;;;;15.40;7.22;;;;;;;1.96;89.56;102567.56;5071438;28;20063;-58
2022/01/24 05:07:04;;;;;;;9.38;4.63;;;;;;;1.97;89.89;102568.44;5072864;28;20048;-57
2022/01/24 05:09:36;;;;;;;7.80;3.80;;;;;;;1.97;89.27;102573.53;5076538;28;20419;-58
2022/01/24 05:12:09;;;;;;;7.43;3.90;;;;;;;1.97;89.38;102578.66;5069871;28;20041;-57
2022/01/24 05:25:57;;;;;;;10.00;3.50;;;;;;;1.96;89.60;102559.00;5036204;28;20137;-58
2022/01/24 05:28:24;;;;;;;9.95;3.88;;;;;;;1.97;89.52;102563.31;5070911;28;20063;-57
2022/01/24 05:30:52;;;;;;;8.38;3.72;;;;;;;1.98;89.43;102560.84;5073454;28;20048;-58
2022/01/24 05:33:21;;;;;;;7.13;3.00;;;;;;;2.02;89.46;102561.88;5078458;28;20044;-58
2022/01/24 05:35:48;;;;;;;6.32;2.80;;;;;;;2.02;89.27;102557.66;5068846;28;20075;-57
2022/01/24 05:38:16;;;;;;;8.52;3.35;;;;;;;2.05;89.52;102572.28;5070375;28;20060;-57
2022/01/24 05:40:44;;;;;;;9.38;3.92;;;;;;;2.06;89.39;102564.69;5069811;28;20082;-56
2022/01/24 05:43:12;;;;;;;9.70;3.85;;;;;;;2.10;89.54;102576.03;5073925;28;20079;-57
2022/01/24 05:45:39;;;;;;;11.77;4.97;;;;;;;2.11;89.80;102562.44;5070297;28;20048;-57
2022/01/24 05:48:06;;;;;;;13.65;5.50;;;;;;;2.10;89.54;102560.66;5070616;28;20070;-57
2022/01/24 05:50:35;;;;;;;7.32;3.90;;;;;;;2.10;89.53;102566.66;5071754;28;20044;-58
2022/01/24 05:53:02;;;;;;;7.50;3.38;;;;;;;2.12;89.77;102569.31;5075773;28;20685;-57
2022/01/24 05:55:29;;;;;;;8.60;3.25;;;;;;;2.14;89.47;102562.59;5084599;28;20373;-58
2022/01/24 05:57:57;;;;;;;5.72;3.08;;;;;;;2.13;89.77;102556.59;5076091;28;20052;-57
2022/01/24 06:00:24;;;;;;;6.72;3.75;;;;;;;2.13;89.97;102571.06;5077252;28;20052;-57
2022/01/24 06:02:52;;;;;;;5.72;3.28;;;;;;;2.14;90.02;102568.59;5075470;28;20063;-58
2022/01/24 06:05:19;;;;;;;6.28;2.83;;;;;;;2.14;89.92;102567.72;5074059;28;20055;-57
2022/01/24 06:07:49;;;;;;;7.65;3.83;;;;;;;2.17;89.84;102573.00;5079686;28;20124;-56
2022/01/24 06:10:16;;;;;;;5.70;3.05;;;;;;;2.15;90.33;102570.34;5079732;28;20059;-58
2022/01/24 06:12:44;;;;;;;8.25;3.55;;;;;;;2.16;90.41;102566.13;5083771;28;20732;-58
2022/01/24 06:15:11;;;;;;;6.88;3.60;;;;;;;2.17;90.70;102575.56;5076011;28;20044;-57
2022/01/24 06:17:39;;;;;;;8.32;3.47;;;;;;;2.18;90.37;102569.63;5074961;28;20388;-58
2022/01/24 06:20:07;;;;;;;8.93;3.83;;;;;;;2.14;91.04;102567.72;5073290;28;20059;-57
2022/01/24 06:22:36;;;;;;;9.85;4.18;;;;;;;2.14;90.70;102573.72;5074840;28;20056;-58
2022/01/24 06:25:07;;;;;;;12.02;5.38;;;;;;;2.15;90.76;102560.13;5073655;28;20056;-58
2022/01/24 06:27:34;;;;;;;32.10;12.63;;;;;;;2.15;90.85;102559.25;5072178;28;20052;-57
2022/01/24 06:30:01;;;;;;;21.27;9.30;;;;;;;2.14;90.86;102567.72;5073951;28;20473;-57
2022/01/24 06:32:28;;;;;;;12.05;4.63;;;;;;;2.12;90.46;102565.06;5079052;28;20059;-57
2022/01/24 06:34:55;;;;;;;6.47;3.40;;;;;;;2.09;91.15;102574.25;5073477;28;20059;-58
2022/01/24 06:37:23;;;;;;;7.10;3.88;;;;;;;2.11;91.25;102572.66;5075862;28;21718;-57
2022/01/24 06:39:50;;;;;;;7.00;3.65;;;;;;;2.11;91.28;102567.53;5076053;28;20060;-58
2022/01/24 06:42:23;;;;;;;7.82;4.13;;;;;;;2.09;91.50;102570.03;5076582;28;20496;-58
2022/01/24 06:44:51;;;;;;;8.80;4.15;;;;;;;2.08;91.01;102577.56;5083992;28;20553;-57
2022/01/24 06:47:18;;;;;;;8.13;3.75;;;;;;;2.07;91.53;102576.69;5085609;28;20040;-58
2022/01/24 06:49:45;;;;;;;9.18;3.83;;;;;;;2.07;91.46;102575.81;5082699;28;20048;-57
2022/01/24 06:52:13;;;;;;;8.60;3.75;;;;;;;2.07;91.87;102575.81;5085746;28;20052;-57
2022/01/24 06:54:42;;;;;;;6.38;3.50;;;;;;;2.08;91.33;102572.47;5076700;28;20076;-57
2022/01/24 06:57:11;;;;;;;6.55;3.85;;;;;;;2.08;91.85;102578.50;5078602;28;20129;-57
2022/01/24 06:59:39;;;;;;;6.43;3.25;;;;;;;2.07;91.56;102575.81;5076331;28;21690;-58
2022/01/24 07:02:07;;;;;;;9.88;4.22;;;;;;;2.06;91.48;102587.72;5067488;28;20494;-62
2022/01/24 07:04:36;;;;;;;28.17;11.20;;;;;;;2.06;91.43;102586.84;5078313;28;20409;-59
2022/01/24 07:07:04;;;;;;;8.65;4.50;;;;;;;2.04;91.89;102585.88;5082913;28;20050;-60
2022/01/24 07:09:31;;;;;;;7.90;4.15;;;;;;;2.07;91.57;102586.06;5075830;28;20056;-60
2022/01/24 07:11:58;;;;;;;8.63;3.47;;;;;;;2.08;91.92;102593.84;5073373;28;20055;-60
2022/01/24 07:14:25;;;;;;;7.75;3.50;;;;;;;2.10;91.91;102593.94;5079719;28;20591;-59
2022/01/24 07:17:12;;;;;;;9.18;4.55;;;;;;;2.13;91.51;102588.97;5088522;28;20464;-59
2022/01/24 07:19:39;;;;;;;7.40;3.83;;;;;;;2.14;91.85;102591.63;5075779;28;20060;-61
2022/01/24 07:22:07;;;;;;;7.80;3.70;;;;;;;2.17;91.45;102588.34;5072866;28;20051;-60
2022/01/24 07:24:35;;;;;;;7.05;3.60;;;;;;;2.16;91.20;102579.78;5074946;28;20060;-58
2022/01/24 07:27:03;;;;;;;6.97;3.17;;;;;;;2.16;91.69;102576.34;5074094;28;20070;-59
2022/01/24 07:29:30;;;;;;;5.95;2.95;;;;;;;2.20;91.29;102573.16;5076193;28;20129;-60
2022/01/24 07:31:59;;;;;;;7.25;3.78;;;;;;;2.23;91.49;102578.44;5073833;28;20052;-59
2022/01/24 07:34:26;;;;;;;5.93;2.83;;;;;;;2.26;91.60;102580.28;5069864;28;20048;-62
2022/01/24 07:36:55;;;;;;;7.78;3.65;;;;;;;2.27;91.21;102572.69;5085421;28;20403;-59
2022/01/24 07:39:23;;;;;;;5.60;2.83;;;;;;;2.31;91.02;102572.06;5082054;28;20080;-57
2022/01/24 07:41:51;;;;;;;13.35;5.10;;;;;;;2.32;90.68;102568.72;5079224;28;20048;-57
2022/01/24 07:44:20;;;;;;;7.03;3.40;;;;;;;2.36;91.05;102580.88;5078629;28;20493;-59
2022/01/24 07:46:47;;;;;;;4.97;3.15;;;;;;;2.40;91.12;102577.69;5074253;28;20436;-60
2022/01/24 07:49:16;;;;;;;7.47;3.60;;;;;;;2.42;91.10;102575.19;5069464;28;20507;-59
2022/01/24 07:51:43;;;;;;;5.25;3.30;;;;;;;2.45;90.66;102581.38;5082159;28;20059;-58
2022/01/24 07:54:10;;;;;;;7.35;3.63;;;;;;;2.48;90.42;102568.72;5071605;28;20059;-59
2022/01/24 07:56:38;;;;;;;7.05;3.80;;;;;;;2.51;90.37;102573.13;5080163;28;20090;-61
2022/01/24 07:59:05;;;;;;;4.88;2.83;;;;;;;2.52;90.43;102568.09;5072431;28;20047;-63
2022/01/24 08:01:32;;;;;;;12.52;5.80;;;;;;;2.56;90.88;102570.81;5069094;28;20059;-62
2022/01/24 08:04:01;;;;;;;11.43;6.43;;;;;;;2.60;90.83;102565.06;5072615;28;20044;-60
2022/01/24 08:06:31;;;;;;;14.93;5.05;;;;;;;2.62;90.17;102564.38;5074082;28;20048;-60
2022/01/24 08:08:58;;;;;;;10.52;5.22;;;;;;;2.64;90.50;102572.13;5071689;28;21898;-60
2022/01/24 08:11:26;;;;;;;10.48;5.00;;;;;;;2.65;91.08;102566.22;5070690;28;20052;-60
2022/01/24 08:13:54;;;;;;;8.55;4.78;;;;;;;2.68;90.30;102564.69;5073805;28;20052;-60
2022/01/24 08:16:22;;;;;;;9.05;4.60;;;;;;;2.71;90.48;102559.72;5077013;28;20051;-59
2022/01/24 08:18:51;;;;;;;7.93;4.90;;;;;;;2.73;90.45;102564.94;5072004;28;20697;-60
2022/01/24 08:21:19;;;;;;;8.88;4.60;;;;;;;2.74;90.60;102548.75;5072501;28;20504;-59
2022/01/24 08:23:47;;;;;;;8.57;4.53;;;;;;;2.78;91.08;102560.94;5073396;28;20055;-62
2022/01/24 08:26:15;;;;;;;10.35;4.82;;;;;;;2.82;91.14;102557.72;5076263;28;20048;-62
2022/01/24 08:28:42;;;;;;;7.95;4.38;;;;;;;2.85;91.02;102537.38;5080022;28;20067;-62
2022/01/24 08:31:09;;;;;;;7.90;4.03;;;;;;;2.89;90.37;102554.69;5078081;28;20981;-56
2022/01/24 08:33:36;;;;;;;10.57;4.85;;;;;;;2.93;90.67;102545.47;5074467;28;20048;-62
2022/01/24 08:36:04;;;;;;;10.43;5.20;;;;;;;2.96;90.23;102545.63;5075925;28;20681;-60
2022/01/24 08:38:35;;;;;;;10.95;5.18;;;;;;;2.98;90.00;102550.03;5076837;28;20527;-64
2022/01/24 08:41:09;;;;;;;8.60;4.63;;;;;;;2.98;90.42;102560.28;5073934;28;20054;-62
2022/01/24 08:43:49;;;;;;;9.65;5.28;;;;;;;2.99;90.41;102553.47;5086529;28;20066;-63
2022/01/24 08:46:17;;;;;;;14.98;5.10;;;;;;;3.04;89.73;102549.44;5079289;28;20067;-61
2022/01/24 08:48:46;;;;;;;14.63;7.22;;;;;;;3.05;89.77;102557.22;5072028;28;20090;-61
2022/01/24 08:51:13;;;;;;;17.30;7.95;;;;;;;3.05;90.38;102554.66;5073042;28;20121;-61
2022/01/24 08:53:40;;;;;;;14.45;7.80;;;;;;;3.08;90.67;102548.81;5073184;28;20044;-60
2022/01/24 08:56:10;;;;;;;15.05;7.07;;;;;;;3.12;90.41;102543.94;5073140;28;20058;-59
2022/01/24 08:58:38;;;;;;;10.88;6.15;;;;;;;3.13;90.23;102544.81;5070222;28;20562;-61
2022/01/24 09:01:06;;;;;;;13.18;5.97;;;;;;;3.13;90.82;102535.44;5074931;28;20145;-62
2022/01/24 09:03:39;;;;;;;19.88;5.95;;;;;;;3.21;90.54;102540.09;5074027;28;20052;-61
2022/01/24 09:06:07;;;;;;;10.88;5.10;;;;;;;3.27;90.00;102550.63;5076763;28;20538;-61
2022/01/24 09:08:36;;;;;;;10.05;4.53;;;;;;;3.31;89.64;102550.00;5071437;28;20443;-61
2022/01/24 09:11:04;;;;;;;10.82;5.30;;;;;;;3.34;90.25;102550.13;5070761;28;20753;-61
2022/01/24 09:13:33;;;;;;;12.00;5.70;;;;;;;3.37;89.68;102550.28;5070144;28;20044;-60
2022/01/24 09:16:01;;;;;;;8.25;5.32;;;;;;;3.39;90.08;102553.81;5076924;28;20086;-62
2022/01/24 09:18:29;;;;;;;13.10;5.32;;;;;;;3.40;89.86;102546.19;5074772;28;20147;-61
2022/01/24 09:20:56;;;;;;;11.05;5.95;;;;;;;3.44;90.23;102553.22;5073014;28;20056;-62
2022/01/24 09:23:23;;;;;;;12.27;5.60;;;;;;;3.50;90.09;102555.22;5069045;28;20052;-66
2022/01/24 09:25:51;;;;;;;9.02;4.90;;;;;;;3.53;90.35;102552.81;5076353;28;20051;-59
2022/01/24 09:28:18;;;;;;;13.23;5.70;;;;;;;3.57;90.25;102543.56;5051664;28;20076;-47
2022/01/24 09:30:47;;;;;;;11.98;5.72;;;;;;;3.60;90.30;102539.47;5055609;28;20488;-54
2022/01/24 09:33:15;;;;;;;9.52;4.65;;;;;;;3.63;89.93;102542.19;5063601;28;20074;-53
2022/01/24 09:35:43;;;;;;;7.40;4.50;;;;;;;3.70;89.72;102541.69;5061216;28;20052;-54
2022/01/24 09:38:10;;;;;;;13.95;5.68;;;;;;;3.73;89.87;102531.59;5058987;28;20045;-55
2022/01/24 09:40:38;;;;;;;15.48;6.68;;;;;;;3.76;89.39;102539.44;5060054;28;20055;-52
2022/01/24 09:43:06;;;;;;;11.23;5.32;;;;;;;3.82;89.80;102538.84;5060483;28;20053;-54
2022/01/24 09:45:34;;;;;;;10.57;5.68;;;;;;;3.87;89.14;102537.38;5058878;28;20052;-61
2022/01/24 09:48:03;;;;;;;14.30;5.55;;;;;;;3.90;89.16;102531.50;5063405;28;20393;-59
2022/01/24 09:50:31;;;;;;;11.43;6.53;;;;;;;3.91;88.46;102538.41;5064307;28;20533;-57
2022/01/24 09:52:58;;;;;;;15.65;6.47;;;;;;;3.94;88.59;102533.41;5061608;28;20045;-57
2022/01/24 09:55:26;;;;;;;11.30;5.60;;;;;;;4.01;88.24;102548.28;5062709;28;20099;-55
2022/01/24 09:57:53;;;;;;;11.05;4.97;;;;;;;4.07;88.35;102543.44;5054639;28;20431;-57
2022/01/24 10:00:24;;;;;;;10.60;5.00;;;;;;;4.11;87.57;102535.06;5056768;28;20114;-60
2022/01/24 10:02:52;;;;;;;11.60;4.82;;;;;;;4.13;87.52;102530.88;5061742;28;20044;-58
2022/01/24 10:05:23;;;;;;;11.45;5.35;;;;;;;4.13;87.03;102539.47;5061049;28;20044;-60
2022/01/24 10:07:51;;;;;;;15.38;6.00;;;;;;;4.15;87.61;102530.94;5056920;28;20049;-61
2022/01/24 10:10:28;;;;;;;13.57;5.28;;;;;;;4.20;87.53;102530.38;5061422;28;20511;-62
2022/01/24 10:16:26;;;;;;;16.05;5.05;;;;;;;4.27;86.61;102537.56;5021632;28;20061;-54
2022/01/24 10:19:08;;;;;;;12.98;4.72;;;;;;;4.29;87.01;102525.66;5017994;28;20136;-58
2022/01/24 10:21:42;;;;;;;8.35;4.05;;;;;;;4.32;86.80;102525.81;5045913;28;20080;-57
2022/01/24 10:24:10;;;;;;;10.63;4.03;;;;;;;4.36;86.38;102532.84;5062114;28;20048;-58
2022/01/24 10:26:37;;;;;;;12.02;4.30;;;;;;;4.39;86.51;102530.41;5062038;28;20454;-58
2022/01/24 10:29:11;;;;;;;10.32;5.15;;;;;;;4.43;86.34;102529.75;5056619;28;20057;-57
2022/01/24 10:31:46;;;;;;;10.73;5.72;;;;;;;4.47;86.58;102519.59;5059179;28;20045;-58
2022/01/24 10:34:18;;;;;;;8.52;4.90;;;;;;;4.51;85.92;102518.94;5064474;28;20056;-59
2022/01/24 10:36:50;;;;;;;9.68;4.55;;;;;;;4.55;86.45;102513.13;5062129;28;20443;-59
2022/01/24 10:39:29;;;;;;;10.10;4.80;;;;;;;4.60;86.10;102511.63;5064939;28;20432;-59
2022/01/24 10:42:52;;;;;;;10.05;5.32;;;;;;;4.64;85.72;102516.09;5069392;28;20056;-59
2022/01/24 10:45:22;;;;;;;8.05;3.90;;;;;;;4.69;85.93;102512.06;5070361;28;20052;-59
2022/01/24 10:47:54;;;;;;;9.63;5.22;;;;;;;4.74;85.56;102505.44;5065487;28;20062;-59
2022/01/24 10:50:24;;;;;;;12.38;5.68;;;;;;;4.79;86.11;102511.66;5063293;28;20060;-58
2022/01/24 10:52:53;;;;;;;11.13;4.68;;;;;;;4.86;85.25;102511.09;5058453;28;20079;-59
2022/01/24 10:55:24;;;;;;;10.43;5.30;;;;;;;4.89;84.96;102505.22;5064219;28;20048;-58
2022/01/24 10:57:53;;;;;;;13.60;4.97;;;;;;;4.91;85.08;102501.00;5071036;28;20501;-58
2022/01/24 11:00:23;;;;;;;7.43;4.07;;;;;;;4.95;85.34;102501.19;5062366;28;20061;-58
2022/01/24 11:02:53;;;;;;;16.40;5.15;;;;;;;5.01;85.66;102505.72;5062436;28;20057;-58
2022/01/24 11:05:22;;;;;;;10.05;5.63;;;;;;;5.08;85.43;102503.47;5063008;28;20076;-60
2022/01/24 11:07:56;;;;;;;11.88;6.57;;;;;;;5.15;84.86;102498.59;5065773;28;20048;-61
2022/01/24 11:10:25;;;;;;;9.13;4.80;;;;;;;5.20;85.00;102494.50;5071161;28;20052;-56
2022/01/24 11:12:52;;;;;;;12.75;6.65;;;;;;;5.26;84.95;102484.50;5069586;28;20089;-59
2022/01/24 11:15:20;;;;;;;9.45;5.10;;;;;;;5.29;84.40;102492.34;5067053;28;20044;-59
2022/01/24 11:17:48;;;;;;;7.35;4.65;;;;;;;5.29;84.21;102482.06;5059637;28;20492;-59
2022/01/24 11:20:18;;;;;;;10.88;5.32;;;;;;;5.31;84.01;102481.31;5059376;28;20064;-59
2022/01/24 11:25:22;;;;;;;9.10;4.72;;;;;;;5.36;84.09;102473.78;4620311;23;20053;-62
2022/01/24 11:27:50;;;;;;;13.20;5.35;;;;;;;5.45;83.94;102488.69;5015739;28;20730;-69
2022/01/24 11:30:20;;;;;;;11.15;5.55;;;;;;;5.53;84.20;102480.47;5019622;28;20140;-64
2022/01/24 11:32:53;;;;;;;11.88;5.90;;;;;;;5.65;83.35;102478.38;5016798;28;20529;-62
2022/01/24 11:35:31;;;;;;;8.93;5.00;;;;;;;5.76;82.41;102470.22;5019939;28;20080;-63
2022/01/24 11:37:59;;;;;;;13.20;5.35;;;;;;;5.79;82.01;102460.94;5015299;28;20053;-64
2022/01/24 11:40:43;;;;;;;16.05;5.28;;;;;;;5.83;81.94;102464.50;5016005;28;20731;-64
2022/01/24 11:43:25;;;;;;;7.57;4.53;;;;;;;5.80;81.02;102462.69;5024842;28;20405;-58
2022/01/24 11:46:01;;;;;;;10.30;5.10;;;;;;;5.79;80.70;102460.94;5016360;28;20133;-59
2022/01/24 11:48:29;;;;;;;11.20;5.90;;;;;;;5.78;80.83;102463.44;5020257;28;20045;-66
2022/01/24 11:51:03;;;;;;;8.93;5.00;;;;;;;5.78;80.98;102458.31;5022235;28;20049;-59
2022/01/24 11:53:33;;;;;;;15.50;5.70;;;;;;;5.80;80.83;102459.22;5023210;28;20064;-60
2022/01/24 11:56:21;;;;;;;10.85;5.75;;;;;;;5.83;81.04;102449.06;5023795;28;20054;-62
2022/01/24 11:58:49;;;;;;;10.82;5.32;;;;;;;5.93;80.92;102448.63;5022860;28;20069;-61
2022/01/24 12:01:34;;;;;;;10.27;5.68;;;;;;;6.02;81.02;102448.97;5022967;28;20056;-59
2022/01/24 12:04:01;;;;;;;10.53;4.93;;;;;;;6.13;81.01;102446.78;5022813;28;20045;-65
2022/01/24 12:06:28;;;;;;;9.80;5.25;;;;;;;6.24;80.63;102456.69;5023233;28;20046;-64
2022/01/24 12:09:02;;;;;;;9.93;5.28;;;;;;;6.33;79.75;102454.44;5022236;28;20060;-63
2022/01/24 12:11:35;;;;;;;14.23;5.57;;;;;;;6.31;78.84;102456.06;5023062;28;20115;-65
2022/01/24 12:14:13;;;;;;;13.00;5.68;;;;;;;6.29;79.11;102454.28;5021630;28;20053;-64
2022/01/24 12:16:42;;;;;;;15.02;6.03;;;;;;;6.33;79.20;102451.88;5023864;28;20046;-62
2022/01/24 12:19:11;;;;;;;10.70;5.10;;;;;;;6.39;79.12;102453.78;5022418;28;20379;-67
2022/01/24 12:21:39;;;;;;;8.32;4.97;;;;;;;6.47;79.03;102454.06;5022326;28;20053;-65
2022/01/24 12:24:09;;;;;;;10.32;4.82;;;;;;;6.53;78.57;102456.84;5021041;28;20053;-66
2022/01/24 12:26:41;;;;;;;22.50;7.40;;;;;;;6.55;78.14;102452.63;5005903;28;20107;-65
2022/01/24 12:29:11;;;;;;;10.77;6.50;;;;;;;6.57;78.12;102453.53;5002042;28;20080;-61
2022/01/24 12:31:44;;;;;;;6.40;4.47;;;;;;;6.56;77.62;102441.50;5001216;28;20058;-66
2022/01/24 12:34:23;;;;;;;6.55;3.65;;;;;;;6.53;77.50;102443.97;5000799;28;20498;-65
2022/01/24 12:37:10;;;;;;;9.02;4.82;;;;;;;6.48;77.73;102451.53;5003466;28;20451;-68
2022/01/24 12:39:48;;;;;;;6.88;4.18;;;;;;;6.42;77.36;102434.97;4995453;28;20141;-62
2022/01/24 12:42:31;;;;;;;13.27;5.78;;;;;;;6.35;77.67;102433.00;4992306;28;20064;-64
2022/01/24 12:47:43;;;;;;;13.35;5.60;;;;;;;6.24;78.14;102441.22;4993418;28;20076;-65
2022/01/24 12:50:11;;;;;;;11.38;5.28;;;;;;;6.16;78.27;102429.75;4996019;28;20046;-58
2022/01/24 12:52:39;;;;;;;10.18;5.25;;;;;;;6.10;78.57;102436.38;4996161;28;20064;-57
2022/01/24 12:55:08;;;;;;;9.63;5.30;;;;;;;6.07;78.58;102433.69;4997400;28;20524;-58
2022/01/24 12:57:42;;;;;;;10.10;5.32;;;;;;;5.99;78.65;102425.69;5002699;28;20100;-54